sensor_id;sensor_type;location;lat;lon;timestamp;pressure;altitude;pressure_sealevel;temperature;humidity
15193;BME280;7697;51.630;7.484;2023-05-24T00:02:33;-17420.88;;;10.37;78.74
15193;BME280;7697;51.630;7.484;2023-05-24T00:07:34;-17418.53;;;10.30;78.81
15193;BME280;7697;51.630;7.484;2023-05-24T00:12:38;-17416.19;;;10.23;79.31
15193;BME280;7697;51.630;7.484;2023-05-24T00:17:40;-17413.81;;;10.15;79.42
15193;BME280;7697;51.630;7.484;2023-05-24T00:22:42;-17411.97;;;10.10;80.05
15193;BME280;7697;51.630;7.484;2023-05-24T00:27:45;-17410.81;;;10.06;80.21
15193;BME280;7697;51.630;7.484;2023-05-24T00:32:47;-17406.78;;;9.94;79.85
15193;BME280;7697;51.630;7.484;2023-05-24T00:37:49;-17405.59;;;9.91;81.01
15193;BME280;7697;51.630;7.484;2023-05-24T00:42:52;-17403.25;;;9.84;81.01
15193;BME280;7697;51.630;7.484;2023-05-24T00:47:55;-17403.59;;;9.85;81.26
15193;BME280;7697;51.630;7.484;2023-05-24T00:52:59;-17401.56;;;9.78;81.25
15193;BME280;7697;51.630;7.484;2023-05-24T00:58:04;-17400.75;;;9.76;81.87
15193;BME280;7697;51.630;7.484;2023-05-24T01:03:05;-17396.88;;;9.64;81.61
15193;BME280;7697;51.630;7.484;2023-05-24T01:08:12;-17395.88;;;9.61;81.58
15193;BME280;7697;51.630;7.484;2023-05-24T01:13:23;-17393.03;;;9.53;81.91
15193;BME280;7697;51.630;7.484;2023-05-24T01:18:33;-17389.84;;;9.43;82.77
15193;BME280;7697;51.630;7.484;2023-05-24T01:23:43;-17387.50;;;9.36;82.71
15193;BME280;7697;51.630;7.484;2023-05-24T01:28:50;-17385.31;;;9.29;83.13
15193;BME280;7697;51.630;7.484;2023-05-24T01:33:52;-17384.81;;;9.28;82.75
15193;BME280;7697;51.630;7.484;2023-05-24T01:38:53;-17384.13;;;9.26;83.10
15193;BME280;7697;51.630;7.484;2023-05-24T01:44:02;-17381.44;;;9.18;83.81
15193;BME280;7697;51.630;7.484;2023-05-24T01:49:17;-17380.09;;;9.14;83.62
15193;BME280;7697;51.630;7.484;2023-05-24T01:54:23;-17378.78;;;9.10;83.69
15193;BME280;7697;51.630;7.484;2023-05-24T01:59:29;-17375.41;;;8.99;83.76
15193;BME280;7697;51.630;7.484;2023-05-24T02:04:32;-17375.41;;;8.99;84.00
15193;BME280;7697;51.630;7.484;2023-05-24T02:09:35;-17373.06;;;8.92;83.77
15193;BME280;7697;51.630;7.484;2023-05-24T02:14:38;-17370.38;;;8.84;84.43
15193;BME280;7697;51.630;7.484;2023-05-24T02:19:41;-17368.53;;;8.79;84.78
15193;BME280;7697;51.630;7.484;2023-05-24T02:24:44;-17367.53;;;8.76;84.94
15193;BME280;7697;51.630;7.484;2023-05-24T02:29:49;-17365.19;;;8.69;85.28
15193;BME280;7697;51.630;7.484;2023-05-24T02:34:52;-17364.34;;;8.66;84.89
15193;BME280;7697;51.630;7.484;2023-05-24T02:39:53;-17361.50;;;8.57;85.41
15193;BME280;7697;51.630;7.484;2023-05-24T02:44:57;-17358.97;;;8.50;85.15
15193;BME280;7697;51.630;7.484;2023-05-24T02:49:58;-17357.31;;;8.45;85.14
15193;BME280;7697;51.630;7.484;2023-05-24T02:55:00;-17355.97;;;8.41;85.42
15193;BME280;7697;51.630;7.484;2023-05-24T03:00:04;-17354.63;;;8.37;85.94
15193;BME280;7697;51.630;7.484;2023-05-24T03:05:08;-17354.28;;;8.36;85.13
15193;BME280;7697;51.630;7.484;2023-05-24T03:10:10;-17351.41;;;8.27;86.26
15193;BME280;7697;51.630;7.484;2023-05-24T03:15:13;-17351.94;;;8.28;86.36
15193;BME280;7697;51.630;7.484;2023-05-24T03:20:15;-17350.25;;;8.23;86.40
15193;BME280;7697;51.630;7.484;2023-05-24T03:25:17;-17350.25;;;8.23;86.27
15193;BME280;7697;51.630;7.484;2023-05-24T03:30:20;-17350.25;;;8.23;86.51
15193;BME280;7697;51.630;7.484;2023-05-24T03:35:22;-17348.56;;;8.18;86.56
15193;BME280;7697;51.630;7.484;2023-05-24T03:40:24;-17347.22;;;8.14;86.82
15193;BME280;7697;51.630;7.484;2023-05-24T03:45:30;-17344.88;;;8.07;87.10
15193;BME280;7697;51.630;7.484;2023-05-24T03:50:32;-17343.53;;;8.03;87.53
15193;BME280;7697;51.630;7.484;2023-05-24T03:55:33;-17343.22;;;8.02;87.72
15193;BME280;7697;51.630;7.484;2023-05-24T04:00:37;-17343.22;;;8.02;87.50
15193;BME280;7697;51.630;7.484;2023-05-24T04:05:38;-17342.69;;;8.01;87.96
15193;BME280;7697;51.630;7.484;2023-05-24T04:10:40;-17342.88;;;8.01;88.54
15193;BME280;7697;51.630;7.484;2023-05-24T04:15:43;-17344.88;;;8.07;88.16
15193;BME280;7697;51.630;7.484;2023-05-24T04:20:45;-17345.88;;;8.10;88.58
15193;BME280;7697;51.630;7.484;2023-05-24T04:25:47;-17346.22;;;8.11;89.02
15193;BME280;7697;51.630;7.484;2023-05-24T04:30:50;-17348.91;;;8.19;89.11
15193;BME280;7697;51.630;7.484;2023-05-24T04:35:53;-17350.75;;;8.25;89.38
15193;BME280;7697;51.630;7.484;2023-05-24T04:40:55;-17352.25;;;8.29;89.49
15193;BME280;7697;51.630;7.484;2023-05-24T04:45:58;-17353.28;;;8.33;89.19
15193;BME280;7697;51.630;7.484;2023-05-24T04:51:00;-17357.31;;;8.45;89.85
15193;BME280;7697;51.630;7.484;2023-05-24T04:56:05;-17358.81;;;8.49;89.67
15193;BME280;7697;51.630;7.484;2023-05-24T05:01:08;-17362.31;;;8.60;89.73
15193;BME280;7697;51.630;7.484;2023-05-24T05:06:10;-17365.00;;;8.68;90.07
15193;BME280;7697;51.630;7.484;2023-05-24T05:11:12;-17367.69;;;8.76;90.59
15193;BME280;7697;51.630;7.484;2023-05-24T05:16:15;-17369.72;;;8.82;90.90
15193;BME280;7697;51.630;7.484;2023-05-24T05:21:17;-17373.41;;;8.93;90.85
15193;BME280;7697;51.630;7.484;2023-05-24T05:26:19;-17376.41;;;9.02;91.63
15193;BME280;7697;51.630;7.484;2023-05-24T05:31:23;-17381.63;;;9.18;91.33
15193;BME280;7697;51.630;7.484;2023-05-24T05:36:25;-17386.66;;;9.33;90.87
15193;BME280;7697;51.630;7.484;2023-05-24T05:41:27;-17393.88;;;9.55;91.07
15193;BME280;7697;51.630;7.484;2023-05-24T05:46:30;-17399.41;;;9.72;91.42
15193;BME280;7697;51.630;7.484;2023-05-24T05:51:32;-17404.94;;;9.89;91.60
15193;BME280;7697;51.630;7.484;2023-05-24T05:56:33;-17408.47;;;9.99;91.73
15193;BME280;7697;51.630;7.484;2023-05-24T06:01:42;-17412.81;;;10.12;91.20
15193;BME280;7697;51.630;7.484;2023-05-24T06:06:45;-17418.34;;;10.29;91.37
15193;BME280;7697;51.630;7.484;2023-05-24T06:11:48;-17421.03;;;10.37;92.14
15193;BME280;7697;51.630;7.484;2023-05-24T06:16:52;-17422.38;;;10.41;92.01
15193;BME280;7697;51.630;7.484;2023-05-24T06:21:53;-17425.75;;;10.51;92.31
15193;BME280;7697;51.630;7.484;2023-05-24T06:26:55;-17427.91;;;10.58;91.96
15193;BME280;7697;51.630;7.484;2023-05-24T06:31:58;-17431.44;;;10.69;92.23
15193;BME280;7697;51.630;7.484;2023-05-24T06:37:01;-17434.28;;;10.77;92.47
15193;BME280;7697;51.630;7.484;2023-05-24T06:42:04;-17438.31;;;10.89;91.71
15193;BME280;7697;51.630;7.484;2023-05-24T06:47:07;-17445.53;;;11.11;92.28
15193;BME280;7697;51.630;7.484;2023-05-24T06:52:09;-17451.22;;;11.28;91.48
15193;BME280;7697;51.630;7.484;2023-05-24T06:57:13;-17457.63;;;11.48;91.72
15193;BME280;7697;51.630;7.484;2023-05-24T07:02:16;-17468.53;;;11.81;90.39
15193;BME280;7697;51.630;7.484;2023-05-24T07:07:19;-17472.72;;;11.93;89.65
15193;BME280;7697;51.630;7.484;2023-05-24T07:12:21;-17477.41;;;12.08;89.33
15193;BME280;7697;51.630;7.484;2023-05-24T07:17:26;-17483.63;;;12.26;89.60
15193;BME280;7697;51.630;7.484;2023-05-24T07:22:28;-17484.78;;;12.30;89.40
15193;BME280;7697;51.630;7.484;2023-05-24T07:27:30;-17486.81;;;12.36;88.84
15193;BME280;7697;51.630;7.484;2023-05-24T07:32:34;-17489.81;;;12.45;89.32
15193;BME280;7697;51.630;7.484;2023-05-24T07:37:35;-17489.81;;;12.45;88.73
15193;BME280;7697;51.630;7.484;2023-05-24T07:42:38;-17490.34;;;12.47;88.15
15193;BME280;7697;51.630;7.484;2023-05-24T07:47:41;-17487.47;;;12.38;87.76
15193;BME280;7697;51.630;7.484;2023-05-24T07:52:42;-17488.31;;;12.40;87.35
15193;BME280;7697;51.630;7.484;2023-05-24T07:57:44;-17491.00;;;12.49;87.50
15193;BME280;7697;51.630;7.484;2023-05-24T08:02:48;-17498.56;;;12.71;86.71
15193;BME280;7697;51.630;7.484;2023-05-24T08:07:50;-17515.00;;;13.21;86.54
15193;BME280;7697;51.630;7.484;2023-05-24T08:12:52;-17525.06;;;13.51;83.18
15193;BME280;7697;51.630;7.484;2023-05-24T08:17:56;-17526.25;;;13.55;82.32
15193;BME280;7697;51.630;7.484;2023-05-24T08:22:58;-17530.44;;;13.68;82.75
15193;BME280;7697;51.630;7.484;2023-05-24T08:28:00;-17526.41;;;13.56;81.54
15193;BME280;7697;51.630;7.484;2023-05-24T08:33:03;-17525.75;;;13.53;82.05
15193;BME280;7697;51.630;7.484;2023-05-24T08:38:05;-17526.25;;;13.55;81.73
15193;BME280;7697;51.630;7.484;2023-05-24T08:43:08;-17529.44;;;13.65;82.72
15193;BME280;7697;51.630;7.484;2023-05-24T08:48:13;-17531.09;;;13.70;80.67
15193;BME280;7697;51.630;7.484;2023-05-24T08:53:15;-17538.31;;;13.92;80.03
15193;BME280;7697;51.630;7.484;2023-05-24T08:58:18;-17548.56;;;14.22;79.39
15193;BME280;7697;51.630;7.484;2023-05-24T09:03:22;-17557.63;;;14.50;78.33
15193;BME280;7697;51.630;7.484;2023-05-24T09:08:24;-17563.50;;;14.68;78.40
15193;BME280;7697;51.630;7.484;2023-05-24T09:13:27;-17565.50;;;14.74;77.78
15193;BME280;7697;51.630;7.484;2023-05-24T09:18:32;-17566.03;;;14.75;77.71
15193;BME280;7697;51.630;7.484;2023-05-24T09:23:34;-17570.03;;;14.87;75.69
15193;BME280;7697;51.630;7.484;2023-05-24T09:28:36;-17563.34;;;14.67;73.72
15193;BME280;7697;51.630;7.484;2023-05-24T09:33:39;-17568.53;;;14.83;73.89
15193;BME280;7697;51.630;7.484;2023-05-24T09:38:41;-17576.41;;;15.07;74.18
15193;BME280;7697;51.630;7.484;2023-05-24T09:43:47;-17587.50;;;15.40;72.94
15193;BME280;7697;51.630;7.484;2023-05-24T09:48:56;-17583.13;;;15.27;72.15
15193;BME280;7697;51.630;7.484;2023-05-24T09:54:00;-17580.78;;;15.20;73.16
15193;BME280;7697;51.630;7.484;2023-05-24T09:59:05;-17577.94;;;15.11;73.94
15193;BME280;7697;51.630;7.484;2023-05-24T10:04:10;-17575.41;;;15.03;74.51
15193;BME280;7697;51.630;7.484;2023-05-24T10:09:13;-17573.41;;;14.97;74.71
15193;BME280;7697;51.630;7.484;2023-05-24T10:14:16;-17568.53;;;14.83;73.69
15193;BME280;7697;51.630;7.484;2023-05-24T10:19:19;-17568.88;;;14.84;75.36
15193;BME280;7697;51.630;7.484;2023-05-24T10:24:25;-17569.03;;;14.84;73.91
15193;BME280;7697;51.630;7.484;2023-05-24T10:29:38;-17573.72;;;14.98;74.38
15193;BME280;7697;51.630;7.484;2023-05-24T10:34:46;-17577.94;;;15.11;73.49
15193;BME280;7697;51.630;7.484;2023-05-24T10:39:48;-17582.63;;;15.25;71.78
15193;BME280;7697;51.630;7.484;2023-05-24T10:44:50;-17587.66;;;15.40;71.42
15193;BME280;7697;51.630;7.484;2023-05-24T10:49:55;-17595.72;;;15.65;69.69
15193;BME280;7697;51.630;7.484;2023-05-24T10:55:03;-17597.06;;;15.69;68.48
15193;BME280;7697;51.630;7.484;2023-05-24T11:00:25;-17594.38;;;15.61;67.84
15193;BME280;7697;51.630;7.484;2023-05-24T11:05:49;-17589.16;;;15.45;68.81
15193;BME280;7697;51.630;7.484;2023-05-24T11:11:01;-17588.16;;;15.42;69.36
15193;BME280;7697;51.630;7.484;2023-05-24T11:16:05;-17584.81;;;15.32;71.08
15193;BME280;7697;51.630;7.484;2023-05-24T11:21:08;-17581.78;;;15.23;72.08
15193;BME280;7697;51.630;7.484;2023-05-24T11:26:10;-17573.22;;;14.97;71.85
15193;BME280;7697;51.630;7.484;2023-05-24T11:31:12;-17569.88;;;14.87;72.11
15193;BME280;7697;51.630;7.484;2023-05-24T11:36:15;-17566.84;;;14.78;72.63
15193;BME280;7697;51.630;7.484;2023-05-24T11:41:17;-17571.56;;;14.92;73.10
15193;BME280;7697;51.630;7.484;2023-05-24T11:46:18;-17577.44;;;15.10;73.41
15193;BME280;7697;51.630;7.484;2023-05-24T11:51:26;-17583.81;;;15.29;71.81
15193;BME280;7697;51.630;7.484;2023-05-24T11:56:29;-17589.50;;;15.46;71.63
15193;BME280;7697;51.630;7.484;2023-05-24T12:01:31;-17591.53;;;15.52;71.08
15193;BME280;7697;51.630;7.484;2023-05-24T12:06:35;-17595.72;;;15.65;70.64
15193;BME280;7697;51.630;7.484;2023-05-24T12:11:38;-17592.03;;;15.54;70.05
15193;BME280;7697;51.630;7.484;2023-05-24T12:16:41;-17595.72;;;15.65;70.39
15193;BME280;7697;51.630;7.484;2023-05-24T12:21:45;-17600.25;;;15.79;69.97
15193;BME280;7697;51.630;7.484;2023-05-24T12:26:48;-17602.75;;;15.86;70.58
15193;BME280;7697;51.630;7.484;2023-05-24T12:31:51;-17599.25;;;15.75;69.99
15193;BME280;7697;51.630;7.484;2023-05-24T12:36:55;-17601.09;;;15.81;70.57
15193;BME280;7697;51.630;7.484;2023-05-24T12:41:58;-17603.09;;;15.87;70.32
15193;BME280;7697;51.630;7.484;2023-05-24T12:47:01;-17601.44;;;15.82;71.27
15193;BME280;7697;51.630;7.484;2023-05-24T12:52:05;-17603.28;;;15.88;70.73
15193;BME280;7697;51.630;7.484;2023-05-24T12:57:07;-17603.94;;;15.90;70.81
15193;BME280;7697;51.630;7.484;2023-05-24T13:02:09;-17602.75;;;15.86;69.87
15193;BME280;7697;51.630;7.484;2023-05-24T13:07:12;-17605.13;;;15.93;70.35
15193;BME280;7697;51.630;7.484;2023-05-24T13:12:13;-17611.00;;;16.11;70.96
15193;BME280;7697;51.630;7.484;2023-05-24T13:17:15;-17616.69;;;16.28;70.46
15193;BME280;7697;51.630;7.484;2023-05-24T13:22:18;-17621.56;;;16.43;68.91
15193;BME280;7697;51.630;7.484;2023-05-24T13:27:20;-17625.09;;;16.54;68.88
15193;BME280;7697;51.630;7.484;2023-05-24T13:32:22;-17628.28;;;16.63;69.97
15193;BME280;7697;51.630;7.484;2023-05-24T13:37:25;-17633.16;;;16.78;69.45
15193;BME280;7697;51.630;7.484;2023-05-24T13:42:27;-17640.03;;;16.99;69.09
15193;BME280;7697;51.630;7.484;2023-05-24T13:47:29;-17635.31;;;16.84;69.00
15193;BME280;7697;51.630;7.484;2023-05-24T13:52:32;-17632.31;;;16.75;68.84
15193;BME280;7697;51.630;7.484;2023-05-24T13:57:34;-17627.94;;;16.62;69.13
15193;BME280;7697;51.630;7.484;2023-05-24T14:02:36;-17631.47;;;16.73;70.32
15193;BME280;7697;51.630;7.484;2023-05-24T14:07:39;-17634.00;;;16.80;69.99
15193;BME280;7697;51.630;7.484;2023-05-24T14:12:41;-17627.78;;;16.62;69.89
15193;BME280;7697;51.630;7.484;2023-05-24T14:17:43;-17627.09;;;16.60;69.32
15193;BME280;7697;51.630;7.484;2023-05-24T14:22:46;-17624.91;;;16.53;68.26
15193;BME280;7697;51.630;7.484;2023-05-24T14:27:47;-17619.22;;;16.36;69.54
15193;BME280;7697;51.630;7.484;2023-05-24T14:32:49;-17622.56;;;16.46;69.60
15193;BME280;7697;51.630;7.484;2023-05-24T14:37:52;-17633.47;;;16.79;70.35
15193;BME280;7697;51.630;7.484;2023-05-24T14:42:54;-17642.38;;;17.06;69.04
15193;BME280;7697;51.630;7.484;2023-05-24T14:47:56;-17653.28;;;17.39;68.58
15193;BME280;7697;51.630;7.484;2023-05-24T14:52:59;-17656.81;;;17.49;67.41
15193;BME280;7697;51.630;7.484;2023-05-24T14:58:01;-17660.31;;;17.60;67.02
15193;BME280;7697;51.630;7.484;2023-05-24T15:03:03;-17667.72;;;17.82;66.81
15193;BME280;7697;51.630;7.484;2023-05-24T15:08:08;-17673.25;;;17.99;65.91
15193;BME280;7697;51.630;7.484;2023-05-24T15:13:10;-17671.91;;;17.95;65.40
15193;BME280;7697;51.630;7.484;2023-05-24T15:18:12;-17679.28;;;18.17;65.10
15193;BME280;7697;51.630;7.484;2023-05-24T15:23:15;-17677.13;;;18.11;64.55
15193;BME280;7697;51.630;7.484;2023-05-24T15:28:17;-17674.44;;;18.03;64.93
15193;BME280;7697;51.630;7.484;2023-05-24T15:33:19;-17674.25;;;18.02;64.95
15193;BME280;7697;51.630;7.484;2023-05-24T15:38:22;-17670.72;;;17.91;65.17
15193;BME280;7697;51.630;7.484;2023-05-24T15:43:24;-17667.88;;;17.83;65.37
15193;BME280;7697;51.630;7.484;2023-05-24T15:48:26;-17668.06;;;17.83;65.74
15193;BME280;7697;51.630;7.484;2023-05-24T15:53:29;-17667.38;;;17.81;65.69
15193;BME280;7697;51.630;7.484;2023-05-24T15:58:31;-17664.69;;;17.73;66.00
15193;BME280;7697;51.630;7.484;2023-05-24T16:03:33;-17662.84;;;17.68;66.12
15193;BME280;7697;51.630;7.484;2023-05-24T16:08:38;-17663.69;;;17.70;66.20
15193;BME280;7697;51.630;7.484;2023-05-24T16:13:40;-17666.72;;;17.79;66.98
15193;BME280;7697;51.630;7.484;2023-05-24T16:18:41;-17668.22;;;17.84;66.42
15193;BME280;7697;51.630;7.484;2023-05-24T16:23:45;-17666.38;;;17.78;66.00
15193;BME280;7697;51.630;7.484;2023-05-24T16:28:46;-17662.00;;;17.65;66.40
15193;BME280;7697;51.630;7.484;2023-05-24T16:33:48;-17660.31;;;17.60;66.95
15193;BME280;7697;51.630;7.484;2023-05-24T16:38:51;-17660.00;;;17.59;66.62
15193;BME280;7697;51.630;7.484;2023-05-24T16:43:54;-17659.81;;;17.58;67.11
15193;BME280;7697;51.630;7.484;2023-05-24T16:48:55;-17657.31;;;17.51;66.92
15193;BME280;7697;51.630;7.484;2023-05-24T16:53:59;-17656.31;;;17.48;67.19
15193;BME280;7697;51.630;7.484;2023-05-24T16:59:00;-17653.09;;;17.38;67.13
15193;BME280;7697;51.630;7.484;2023-05-24T17:04:02;-17652.28;;;17.36;67.39
15193;BME280;7697;51.630;7.484;2023-05-24T17:09:05;-17651.44;;;17.33;66.87
15193;BME280;7697;51.630;7.484;2023-05-24T17:14:07;-17651.94;;;17.35;67.40
15193;BME280;7697;51.630;7.484;2023-05-24T17:19:09;-17649.25;;;17.27;67.53
15193;BME280;7697;51.630;7.484;2023-05-24T17:24:14;-17647.56;;;17.21;67.57
15193;BME280;7697;51.630;7.484;2023-05-24T17:29:16;-17646.91;;;17.19;67.69
15193;BME280;7697;51.630;7.484;2023-05-24T17:34:18;-17644.06;;;17.11;67.89
15193;BME280;7697;51.630;7.484;2023-05-24T17:39:21;-17643.53;;;17.09;68.29
15193;BME280;7697;51.630;7.484;2023-05-24T17:44:23;-17639.69;;;16.98;68.56
15193;BME280;7697;51.630;7.484;2023-05-24T17:49:24;-17634.16;;;16.81;68.84
15193;BME280;7697;51.630;7.484;2023-05-24T17:54:28;-17631.47;;;16.73;69.53
15193;BME280;7697;51.630;7.484;2023-05-24T17:59:31;-17629.97;;;16.68;69.97
15193;BME280;7697;51.630;7.484;2023-05-24T18:04:33;-17629.63;;;16.67;70.17
15193;BME280;7697;51.630;7.484;2023-05-24T18:09:37;-17629.63;;;16.67;70.77
15193;BME280;7697;51.630;7.484;2023-05-24T18:14:39;-17627.09;;;16.60;70.75
15193;BME280;7697;51.630;7.484;2023-05-24T18:19:41;-17626.25;;;16.57;70.70
15193;BME280;7697;51.630;7.484;2023-05-24T18:24:44;-17622.41;;;16.45;71.01
15193;BME280;7697;51.630;7.484;2023-05-24T18:29:46;-17620.38;;;16.39;71.66
15193;BME280;7697;51.630;7.484;2023-05-24T18:34:48;-17618.03;;;16.32;72.01
15193;BME280;7697;51.630;7.484;2023-05-24T18:39:52;-17615.19;;;16.24;71.97
15193;BME280;7697;51.630;7.484;2023-05-24T18:44:53;-17615.34;;;16.24;72.33
15193;BME280;7697;51.630;7.484;2023-05-24T18:49:55;-17613.84;;;16.20;72.91
15193;BME280;7697;51.630;7.484;2023-05-24T18:55:00;-17613.00;;;16.17;73.86
15193;BME280;7697;51.630;7.484;2023-05-24T19:00:04;-17609.97;;;16.08;74.37
15193;BME280;7697;51.630;7.484;2023-05-24T19:05:07;-17608.47;;;16.03;74.59
15193;BME280;7697;51.630;7.484;2023-05-24T19:10:10;-17606.97;;;15.99;75.01
15193;BME280;7697;51.630;7.484;2023-05-24T19:15:13;-17603.28;;;15.88;75.28
15193;BME280;7697;51.630;7.484;2023-05-24T19:20:14;-17598.91;;;15.74;75.41
15193;BME280;7697;51.630;7.484;2023-05-24T19:25:18;-17595.56;;;15.64;76.04
15193;BME280;7697;51.630;7.484;2023-05-24T19:30:20;-17593.38;;;15.58;76.31
15193;BME280;7697;51.630;7.484;2023-05-24T19:35:22;-17590.19;;;15.48;76.54
15193;BME280;7697;51.630;7.484;2023-05-24T19:40:25;-17587.81;;;15.41;77.20
15193;BME280;7697;51.630;7.484;2023-05-24T19:45:27;-17585.81;;;15.35;77.49
15193;BME280;7697;51.630;7.484;2023-05-24T19:50:29;-17583.81;;;15.29;78.07
15193;BME280;7697;51.630;7.484;2023-05-24T19:55:32;-17581.63;;;15.22;78.48
15193;BME280;7697;51.630;7.484;2023-05-24T20:00:35;-17578.75;;;15.14;79.17
15193;BME280;7697;51.630;7.484;2023-05-24T20:05:37;-17576.41;;;15.07;79.42
15193;BME280;7697;51.630;7.484;2023-05-24T20:10:41;-17572.38;;;14.94;79.72
15193;BME280;7697;51.630;7.484;2023-05-24T20:15:42;-17569.22;;;14.85;79.80
15193;BME280;7697;51.630;7.484;2023-05-24T20:20:44;-17565.34;;;14.73;80.02
15193;BME280;7697;51.630;7.484;2023-05-24T20:25:48;-17563.16;;;14.67;80.75
15193;BME280;7697;51.630;7.484;2023-05-24T20:30:50;-17560.16;;;14.57;81.28
15193;BME280;7697;51.630;7.484;2023-05-24T20:35:52;-17557.63;;;14.50;81.47
15193;BME280;7697;51.630;7.484;2023-05-24T20:40:55;-17553.94;;;14.39;81.63
15193;BME280;7697;51.630;7.484;2023-05-24T20:45:57;-17550.06;;;14.27;82.13
15193;BME280;7697;51.630;7.484;2023-05-24T20:50:59;-17546.53;;;14.16;81.93
15193;BME280;7697;51.630;7.484;2023-05-24T20:56:03;-17542.69;;;14.05;82.51
15193;BME280;7697;51.630;7.484;2023-05-24T21:01:05;-17537.47;;;13.89;83.05
15193;BME280;7697;51.630;7.484;2023-05-24T21:06:07;-17535.47;;;13.83;83.19
15193;BME280;7697;51.630;7.484;2023-05-24T21:11:10;-17531.94;;;13.72;83.83
15193;BME280;7697;51.630;7.484;2023-05-24T21:16:12;-17528.75;;;13.63;84.30
15193;BME280;7697;51.630;7.484;2023-05-24T21:21:14;-17527.91;;;13.60;83.87
15193;BME280;7697;51.630;7.484;2023-05-24T21:26:17;-17526.41;;;13.56;84.35
15193;BME280;7697;51.630;7.484;2023-05-24T21:31:19;-17525.06;;;13.51;84.64
15193;BME280;7697;51.630;7.484;2023-05-24T21:36:22;-17523.91;;;13.48;84.39
15193;BME280;7697;51.630;7.484;2023-05-24T21:41:25;-17520.72;;;13.38;85.02
15193;BME280;7697;51.630;7.484;2023-05-24T21:46:27;-17518.34;;;13.31;85.06
15193;BME280;7697;51.630;7.484;2023-05-24T21:51:29;-17515.34;;;13.22;85.45
15193;BME280;7697;51.630;7.484;2023-05-24T21:56:32;-17513.81;;;13.18;85.16
15193;BME280;7697;51.630;7.484;2023-05-24T22:01:34;-17511.31;;;13.10;85.48
15193;BME280;7697;51.630;7.484;2023-05-24T22:06:36;-17509.13;;;13.03;85.97
15193;BME280;7697;51.630;7.484;2023-05-24T22:11:42;-17505.59;;;12.93;85.76
15193;BME280;7697;51.630;7.484;2023-05-24T22:16:43;-17503.94;;;12.88;86.36
15193;BME280;7697;51.630;7.484;2023-05-24T22:21:45;-17501.06;;;12.79;86.00
15193;BME280;7697;51.630;7.484;2023-05-24T22:26:50;-17499.41;;;12.74;86.99
15193;BME280;7697;51.630;7.484;2023-05-24T22:31:52;-17496.72;;;12.66;86.83
15193;BME280;7697;51.630;7.484;2023-05-24T22:36:54;-17493.34;;;12.56;86.87
15193;BME280;7697;51.630;7.484;2023-05-24T22:41:58;-17490.50;;;12.47;87.43
15193;BME280;7697;51.630;7.484;2023-05-24T22:46:59;-17486.81;;;12.36;87.22
15193;BME280;7697;51.630;7.484;2023-05-24T22:52:02;-17484.78;;;12.30;87.04
15193;BME280;7697;51.630;7.484;2023-05-24T22:57:07;-17481.09;;;12.19;87.47
15193;BME280;7697;51.630;7.484;2023-05-24T23:02:09;-17478.94;;;12.12;87.65
15193;BME280;7697;51.630;7.484;2023-05-24T23:07:11;-17479.09;;;12.13;87.88
15193;BME280;7697;51.630;7.484;2023-05-24T23:12:16;-17477.75;;;12.09;88.31
15193;BME280;7697;51.630;7.484;2023-05-24T23:17:20;-17471.38;;;11.89;88.86
15193;BME280;7697;51.630;7.484;2023-05-24T23:22:22;-17471.88;;;11.91;89.13
15193;BME280;7697;51.630;7.484;2023-05-24T23:27:26;-17472.56;;;11.93;88.80
15193;BME280;7697;51.630;7.484;2023-05-24T23:32:28;-17471.03;;;11.88;88.81
15193;BME280;7697;51.630;7.484;2023-05-24T23:37:30;-17470.03;;;11.85;89.33
15193;BME280;7697;51.630;7.484;2023-05-24T23:42:34;-17468.69;;;11.81;89.20
15193;BME280;7697;51.630;7.484;2023-05-24T23:47:36;-17469.69;;;11.84;89.26
15193;BME280;7697;51.630;7.484;2023-05-24T23:52:38;-17466.84;;;11.76;89.02
15193;BME280;7697;51.630;7.484;2023-05-24T23:57:41;-17462.31;;;11.62;89.26
